FMN - Four Corners Rgnl

Pirep is a free, collaborative database of all public and private airports located within the United States. All pilots are welcome to contribute, edit, and improve any airport they have local knowledge about, no registration required.
Uploaded photos will be licensed under a CC BY-SA 4.0 license. Please only upload photos you have the rights to use.
Tags
Public
Food
Car Rental
METAR / TAF
Edit Tags
Camping
Lodging
Bicycles
Swimming
Golfing
Fishing
Hot Springs
Museum
Flying Clubs
Airpark
Upcoming Events
No upcoming events. Is anything happening here soon?
*
*
*

Where exactly on/near the airport is this event taking place?

Is there a webpage with more information for this event?

Who should be contacted for more information?

What is this event all about?

Repeat every
Description
Last updated: 2023-05-30 00:06:26 MDT
Transient Parking
Fuel Location
Landing & Tie-down Fees
Crew Car Availability
Flying Clubs
WiFi Access
Airport Statistics
Location: Farmington, NM
Elevation: 5,506ft
Sectional: Denver
Fuel: 100LL, A, A1+ (prices)
Runway 07/25: 6,704ft
Runway 05/23: 6,501ft
Access: Open to the public
Current Weather — VFR
  • Weather data is strictly informational and not for flight planning purposes.
  • METAR
    2024-05-30 03:53:00 MDT
    Ceiling Wind Temperature Dewpoint Weather Visbility
    Sky clear 30° @ 6kt 46°F 3°F N/A 10SM
    Raw: KFMN 300953Z AUTO 03006KT 10SM CLR 08/M16 A3004 RMK AO2 SLP120 T00831156
  • TAF
    2024-05-30 00:00:00 MDT – 2024-05-30 06:00:00 MDT
    Ceiling Wind Weather Visbility
    Sky clear Variable N/A 6SM
    Clouds: @ ft
    Raw: KFMN 300540Z 3006/3106 VRB05KT P6SM SKC FM301200 08006KT P6SM SKC FM301800 27009KT P6SM SKC FM302100 29012G22KT P6SM FEW130 FM310300 VRB06KT P6SM FEW250
  • TAF
    2024-05-30 06:00:00 MDT – 2024-05-30 12:00:00 MDT
    Ceiling Wind Weather Visbility
    Sky clear 80° @ 6kt N/A 6SM
    Clouds: @ ft
    Raw: KFMN 300540Z 3006/3106 VRB05KT P6SM SKC FM301200 08006KT P6SM SKC FM301800 27009KT P6SM SKC FM302100 29012G22KT P6SM FEW130 FM310300 VRB06KT P6SM FEW250
  • TAF
    2024-05-30 12:00:00 MDT – 2024-05-30 15:00:00 MDT
    Ceiling Wind Weather Visbility
    Sky clear 270° @ 9kt N/A 6SM
    Clouds: @ ft
    Raw: KFMN 300540Z 3006/3106 VRB05KT P6SM SKC FM301200 08006KT P6SM SKC FM301800 27009KT P6SM SKC FM302100 29012G22KT P6SM FEW130 FM310300 VRB06KT P6SM FEW250
  • TAF
    2024-05-30 15:00:00 MDT – 2024-05-30 21:00:00 MDT
    Ceiling Wind Weather Visbility
    Sky clear 290° @ 12kt, gusts 22kt N/A 6SM
    Clouds: Few @ 13,000ft
    Raw: KFMN 300540Z 3006/3106 VRB05KT P6SM SKC FM301200 08006KT P6SM SKC FM301800 27009KT P6SM SKC FM302100 29012G22KT P6SM FEW130 FM310300 VRB06KT P6SM FEW250
  • TAF
    2024-05-30 21:00:00 MDT – 2024-05-31 00:00:00 MDT
    Ceiling Wind Weather Visbility
    Sky clear Variable N/A 6SM
    Clouds: Few @ 25,000ft
    Raw: KFMN 300540Z 3006/3106 VRB05KT P6SM SKC FM301200 08006KT P6SM SKC FM301800 27009KT P6SM SKC FM302100 29012G22KT P6SM FEW130 FM310300 VRB06KT P6SM FEW250
Click/tap to add an annotation marker to the map
Airport Webcams
No webcams added yet.
Direct links to live image URLs will be displayed inline on this page. URLs to separate webpages will be linked to.
URL:
Direct links to live image URLs will be displayed inline on this page. URLs to separate webpages will be linked to.
URL:
Remarks
  • For cd ctc farmington atct ground control 121.7, when atct clsd ctc denver artcc at 303-651-4257
  • Arpt surface conditions are not monitored outside of attended hours.
  • When atct clsd actvt reil rwy 23 & 25; papi rwy 05 & 23; vasi rwy 07 & 25; mirl rwy 05/23 & 07/25 - ctaf. reil rwy 25 & mirl rwy 07/25 preset low intst.
Comments
Leave a comment What was your experience like at this airport?